Humboldt, Arizona
Current Conditions -  °F | °C
As of 1:53 AM on Wednesday 26 Nov 2014 (Local Time) from KPRC Reporting Station
Clear Clear  
Wind Chill: 39°   Ceiling: Unl
Heat Index: 39°   Visibility: 10mi
Dew Point: 12°   Wind: 0mph
Humidity: 33%   Direction: NA
Pressure: 30.38"   Gusts: NA
Location:  34.5°N, 112.24°W
Report Text: KPRC 260853Z AUTO 00000KT 10SM CLR 04/M11 A3038 RMK AO2 SLP252 T00391111 56005
Loading
Personal Weather Stations






























Interactive Weather Map New forecast layout! Learn more

10-Day Weather Forecast

Advertisements
Track Severe Weather on mobile